sensor_id;sensor_type;location;lat;lon;timestamp;temperature;humidity
18426;DHT22;9340;48.756;9.226;2023-09-18T00:01:03;17.70;99.90
18426;DHT22;9340;48.756;9.226;2023-09-18T00:03:31;17.70;99.90
18426;DHT22;9340;48.756;9.226;2023-09-18T00:05:58;17.70;99.90
18426;DHT22;9340;48.756;9.226;2023-09-18T00:08:25;17.80;99.90
18426;DHT22;9340;48.756;9.226;2023-09-18T00:10:53;17.80;99.90
18426;DHT22;9340;48.756;9.226;2023-09-18T00:13:22;17.70;99.90
18426;DHT22;9340;48.756;9.226;2023-09-18T00:15:49;17.80;99.90
18426;DHT22;9340;48.756;9.226;2023-09-18T00:18:17;17.80;99.90
18426;DHT22;9340;48.756;9.226;2023-09-18T00:20:44;17.80;99.90
18426;DHT22;9340;48.756;9.226;2023-09-18T00:23:11;17.80;99.90
18426;DHT22;9340;48.756;9.226;2023-09-18T00:25:38;17.80;99.90
18426;DHT22;9340;48.756;9.226;2023-09-18T00:28:06;17.80;99.90
18426;DHT22;9340;48.756;9.226;2023-09-18T00:30:34;17.80;99.90
18426;DHT22;9340;48.756;9.226;2023-09-18T00:33:01;17.80;99.90
18426;DHT22;9340;48.756;9.226;2023-09-18T00:35:28;17.80;99.90
18426;DHT22;9340;48.756;9.226;2023-09-18T00:37:55;17.80;99.90
18426;DHT22;9340;48.756;9.226;2023-09-18T00:40:21;17.80;99.90
18426;DHT22;9340;48.756;9.226;2023-09-18T00:42:48;17.80;99.90
18426;DHT22;9340;48.756;9.226;2023-09-18T00:45:15;17.80;99.90
18426;DHT22;9340;48.756;9.226;2023-09-18T00:47:43;17.80;99.90
18426;DHT22;9340;48.756;9.226;2023-09-18T00:50:12;17.90;99.90
18426;DHT22;9340;48.756;9.226;2023-09-18T00:52:40;18.00;99.90
18426;DHT22;9340;48.756;9.226;2023-09-18T00:55:08;18.10;99.90
18426;DHT22;9340;48.756;9.226;2023-09-18T00:57:35;18.10;99.90
18426;DHT22;9340;48.756;9.226;2023-09-18T01:00:02;18.10;99.90
18426;DHT22;9340;48.756;9.226;2023-09-18T01:02:30;18.20;99.90
18426;DHT22;9340;48.756;9.226;2023-09-18T01:04:59;18.20;99.90
18426;DHT22;9340;48.756;9.226;2023-09-18T01:07:26;18.20;99.90
18426;DHT22;9340;48.756;9.226;2023-09-18T01:09:53;18.30;99.90
18426;DHT22;9340;48.756;9.226;2023-09-18T01:12:33;18.20;99.90
18426;DHT22;9340;48.756;9.226;2023-09-18T01:15:07;18.20;99.90
18426;DHT22;9340;48.756;9.226;2023-09-18T01:17:36;18.30;99.90
18426;DHT22;9340;48.756;9.226;2023-09-18T01:20:08;18.30;99.90
18426;DHT22;9340;48.756;9.226;2023-09-18T01:22:36;18.30;99.90
18426;DHT22;9340;48.756;9.226;2023-09-18T01:25:03;18.40;99.90
18426;DHT22;9340;48.756;9.226;2023-09-18T01:27:32;18.50;99.90
18426;DHT22;9340;48.756;9.226;2023-09-18T01:29:58;18.50;99.90
18426;DHT22;9340;48.756;9.226;2023-09-18T01:32:29;18.50;99.90
18426;DHT22;9340;48.756;9.226;2023-09-18T01:34:57;18.60;99.90
18426;DHT22;9340;48.756;9.226;2023-09-18T01:37:27;18.60;99.90
18426;DHT22;9340;48.756;9.226;2023-09-18T01:39:56;18.70;99.90
18426;DHT22;9340;48.756;9.226;2023-09-18T01:42:25;18.80;99.90
18426;DHT22;9340;48.756;9.226;2023-09-18T01:44:53;18.90;99.90
18426;DHT22;9340;48.756;9.226;2023-09-18T01:47:21;18.90;99.90
18426;DHT22;9340;48.756;9.226;2023-09-18T01:49:49;19.10;99.90
18426;DHT22;9340;48.756;9.226;2023-09-18T01:52:16;19.50;99.90
18426;DHT22;9340;48.756;9.226;2023-09-18T01:54:42;19.80;99.90
18426;DHT22;9340;48.756;9.226;2023-09-18T01:57:10;20.40;99.90
18426;DHT22;9340;48.756;9.226;2023-09-18T01:59:37;20.50;99.90
18426;DHT22;9340;48.756;9.226;2023-09-18T02:02:05;20.90;99.90
18426;DHT22;9340;48.756;9.226;2023-09-18T02:04:35;21.00;99.90
18426;DHT22;9340;48.756;9.226;2023-09-18T02:07:02;21.00;99.90
18426;DHT22;9340;48.756;9.226;2023-09-18T02:09:28;21.00;99.90
18426;DHT22;9340;48.756;9.226;2023-09-18T02:11:55;21.00;99.90
18426;DHT22;9340;48.756;9.226;2023-09-18T02:14:23;21.00;99.90
18426;DHT22;9340;48.756;9.226;2023-09-18T02:16:50;20.90;99.90
18426;DHT22;9340;48.756;9.226;2023-09-18T02:19:17;20.70;99.90
18426;DHT22;9340;48.756;9.226;2023-09-18T02:21:45;20.50;99.90
18426;DHT22;9340;48.756;9.226;2023-09-18T02:24:12;20.20;99.90
18426;DHT22;9340;48.756;9.226;2023-09-18T02:26:39;20.10;99.90
18426;DHT22;9340;48.756;9.226;2023-09-18T02:29:08;19.90;99.90
18426;DHT22;9340;48.756;9.226;2023-09-18T02:31:38;19.80;99.90
18426;DHT22;9340;48.756;9.226;2023-09-18T02:34:04;19.80;99.90
18426;DHT22;9340;48.756;9.226;2023-09-18T02:36:32;19.70;99.90
18426;DHT22;9340;48.756;9.226;2023-09-18T02:38:59;19.50;99.90
18426;DHT22;9340;48.756;9.226;2023-09-18T02:41:26;19.30;99.90
18426;DHT22;9340;48.756;9.226;2023-09-18T02:43:52;19.30;99.90
18426;DHT22;9340;48.756;9.226;2023-09-18T02:46:19;19.20;99.90
18426;DHT22;9340;48.756;9.226;2023-09-18T02:48:47;19.10;99.90
18426;DHT22;9340;48.756;9.226;2023-09-18T02:51:14;19.20;99.90
18426;DHT22;9340;48.756;9.226;2023-09-18T02:53:41;19.20;99.90
18426;DHT22;9340;48.756;9.226;2023-09-18T02:56:07;19.30;99.90
18426;DHT22;9340;48.756;9.226;2023-09-18T02:58:34;19.30;99.90
18426;DHT22;9340;48.756;9.226;2023-09-18T03:01:01;19.30;99.90
18426;DHT22;9340;48.756;9.226;2023-09-18T03:03:29;19.30;99.90
18426;DHT22;9340;48.756;9.226;2023-09-18T03:06:02;19.20;99.90
18426;DHT22;9340;48.756;9.226;2023-09-18T03:08:29;19.10;99.90
18426;DHT22;9340;48.756;9.226;2023-09-18T03:10:56;19.00;99.90
18426;DHT22;9340;48.756;9.226;2023-09-18T03:13:22;18.90;99.90
18426;DHT22;9340;48.756;9.226;2023-09-18T03:15:49;18.80;99.90
18426;DHT22;9340;48.756;9.226;2023-09-18T03:18:16;18.70;99.90
18426;DHT22;9340;48.756;9.226;2023-09-18T03:20:43;18.60;99.90
18426;DHT22;9340;48.756;9.226;2023-09-18T03:23:11;18.60;99.90
18426;DHT22;9340;48.756;9.226;2023-09-18T03:25:37;18.50;99.90
18426;DHT22;9340;48.756;9.226;2023-09-18T03:28:04;18.50;99.90
18426;DHT22;9340;48.756;9.226;2023-09-18T03:30:31;18.60;99.90
18426;DHT22;9340;48.756;9.226;2023-09-18T03:32:58;18.60;99.90
18426;DHT22;9340;48.756;9.226;2023-09-18T03:35:25;18.60;99.90
18426;DHT22;9340;48.756;9.226;2023-09-18T03:37:52;18.50;99.90
18426;DHT22;9340;48.756;9.226;2023-09-18T03:40:22;18.50;99.90
18426;DHT22;9340;48.756;9.226;2023-09-18T03:42:49;18.40;99.90
18426;DHT22;9340;48.756;9.226;2023-09-18T03:45:16;18.40;99.90
18426;DHT22;9340;48.756;9.226;2023-09-18T03:47:45;18.30;99.90
18426;DHT22;9340;48.756;9.226;2023-09-18T03:50:12;18.40;99.90
18426;DHT22;9340;48.756;9.226;2023-09-18T03:52:39;18.30;99.90
18426;DHT22;9340;48.756;9.226;2023-09-18T03:55:06;18.30;99.90
18426;DHT22;9340;48.756;9.226;2023-09-18T03:57:35;18.40;99.90
18426;DHT22;9340;48.756;9.226;2023-09-18T04:00:03;18.50;99.90
18426;DHT22;9340;48.756;9.226;2023-09-18T04:02:30;18.50;99.90
18426;DHT22;9340;48.756;9.226;2023-09-18T04:04:56;18.50;99.90
18426;DHT22;9340;48.756;9.226;2023-09-18T04:07:23;18.40;99.90
18426;DHT22;9340;48.756;9.226;2023-09-18T04:09:50;18.50;99.90
18426;DHT22;9340;48.756;9.226;2023-09-18T04:12:17;18.50;99.90
18426;DHT22;9340;48.756;9.226;2023-09-18T04:14:45;18.60;99.90
18426;DHT22;9340;48.756;9.226;2023-09-18T04:17:12;18.60;99.90
18426;DHT22;9340;48.756;9.226;2023-09-18T04:19:38;18.60;99.90
18426;DHT22;9340;48.756;9.226;2023-09-18T04:22:05;18.50;99.90
18426;DHT22;9340;48.756;9.226;2023-09-18T04:24:32;18.50;99.90
18426;DHT22;9340;48.756;9.226;2023-09-18T04:26:58;18.40;99.90
18426;DHT22;9340;48.756;9.226;2023-09-18T04:29:25;18.40;99.90
18426;DHT22;9340;48.756;9.226;2023-09-18T04:31:53;18.40;99.90
18426;DHT22;9340;48.756;9.226;2023-09-18T04:34:20;18.40;99.90
18426;DHT22;9340;48.756;9.226;2023-09-18T04:36:47;18.50;99.90
18426;DHT22;9340;48.756;9.226;2023-09-18T04:39:13;18.70;99.90
18426;DHT22;9340;48.756;9.226;2023-09-18T04:41:40;18.80;99.90
18426;DHT22;9340;48.756;9.226;2023-09-18T04:44:07;19.00;99.90
18426;DHT22;9340;48.756;9.226;2023-09-18T04:46:34;19.10;99.90
18426;DHT22;9340;48.756;9.226;2023-09-18T04:49:03;19.00;99.90
18426;DHT22;9340;48.756;9.226;2023-09-18T04:51:31;19.00;99.90
18426;DHT22;9340;48.756;9.226;2023-09-18T04:53:58;18.90;99.90
18426;DHT22;9340;48.756;9.226;2023-09-18T04:56:24;18.80;99.90
18426;DHT22;9340;48.756;9.226;2023-09-18T04:58:52;18.70;99.90
18426;DHT22;9340;48.756;9.226;2023-09-18T05:01:19;18.60;99.90
18426;DHT22;9340;48.756;9.226;2023-09-18T05:03:45;18.50;99.90
18426;DHT22;9340;48.756;9.226;2023-09-18T05:06:15;18.50;99.90
18426;DHT22;9340;48.756;9.226;2023-09-18T05:08:43;18.40;99.90
18426;DHT22;9340;48.756;9.226;2023-09-18T05:11:09;18.40;99.90
18426;DHT22;9340;48.756;9.226;2023-09-18T05:13:36;18.40;99.90
18426;DHT22;9340;48.756;9.226;2023-09-18T05:16:03;18.40;99.90
18426;DHT22;9340;48.756;9.226;2023-09-18T05:18:30;18.40;99.90
18426;DHT22;9340;48.756;9.226;2023-09-18T05:20:57;18.40;99.90
18426;DHT22;9340;48.756;9.226;2023-09-18T05:23:25;18.50;99.90
18426;DHT22;9340;48.756;9.226;2023-09-18T05:25:52;18.50;99.90
18426;DHT22;9340;48.756;9.226;2023-09-18T05:28:18;18.50;99.90
18426;DHT22;9340;48.756;9.226;2023-09-18T05:30:45;18.60;99.90
18426;DHT22;9340;48.756;9.226;2023-09-18T05:33:12;18.60;99.90
18426;DHT22;9340;48.756;9.226;2023-09-18T05:35:40;18.70;99.90
18426;DHT22;9340;48.756;9.226;2023-09-18T05:38:07;18.70;99.90
18426;DHT22;9340;48.756;9.226;2023-09-18T05:40:36;18.80;99.90
18426;DHT22;9340;48.756;9.226;2023-09-18T05:43:03;18.80;99.90
18426;DHT22;9340;48.756;9.226;2023-09-18T05:45:30;18.80;99.90
18426;DHT22;9340;48.756;9.226;2023-09-18T05:47:57;18.80;99.90
18426;DHT22;9340;48.756;9.226;2023-09-18T05:50:29;18.90;99.90
18426;DHT22;9340;48.756;9.226;2023-09-18T05:52:57;19.00;99.90
18426;DHT22;9340;48.756;9.226;2023-09-18T05:55:25;19.00;99.90
18426;DHT22;9340;48.756;9.226;2023-09-18T05:57:53;19.10;99.90
18426;DHT22;9340;48.756;9.226;2023-09-18T06:00:20;19.20;99.90
18426;DHT22;9340;48.756;9.226;2023-09-18T06:02:47;19.20;99.90
18426;DHT22;9340;48.756;9.226;2023-09-18T06:05:14;19.30;99.90
18426;DHT22;9340;48.756;9.226;2023-09-18T06:07:42;19.40;99.90
18426;DHT22;9340;48.756;9.226;2023-09-18T06:10:10;19.50;99.90
18426;DHT22;9340;48.756;9.226;2023-09-18T06:12:38;19.40;99.90
18426;DHT22;9340;48.756;9.226;2023-09-18T06:15:07;19.50;99.90
18426;DHT22;9340;48.756;9.226;2023-09-18T06:17:35;19.60;99.90
18426;DHT22;9340;48.756;9.226;2023-09-18T06:20:02;19.60;99.90
18426;DHT22;9340;48.756;9.226;2023-09-18T06:22:29;19.60;99.90
18426;DHT22;9340;48.756;9.226;2023-09-18T06:24:56;19.60;99.90
18426;DHT22;9340;48.756;9.226;2023-09-18T06:27:23;19.70;99.90
18426;DHT22;9340;48.756;9.226;2023-09-18T06:29:50;19.70;99.90
18426;DHT22;9340;48.756;9.226;2023-09-18T06:32:18;19.60;99.90
18426;DHT22;9340;48.756;9.226;2023-09-18T06:34:44;19.60;99.90
18426;DHT22;9340;48.756;9.226;2023-09-18T06:37:12;19.60;99.90
18426;DHT22;9340;48.756;9.226;2023-09-18T06:39:39;19.60;99.90
18426;DHT22;9340;48.756;9.226;2023-09-18T06:42:06;19.70;99.90
18426;DHT22;9340;48.756;9.226;2023-09-18T06:44:33;19.70;99.90
18426;DHT22;9340;48.756;9.226;2023-09-18T06:47:00;19.70;99.90
18426;DHT22;9340;48.756;9.226;2023-09-18T06:49:28;19.80;99.90
18426;DHT22;9340;48.756;9.226;2023-09-18T06:51:56;19.70;99.90
18426;DHT22;9340;48.756;9.226;2023-09-18T06:54:23;19.60;99.90
18426;DHT22;9340;48.756;9.226;2023-09-18T06:56:50;19.70;99.90
18426;DHT22;9340;48.756;9.226;2023-09-18T06:59:17;19.70;99.90
18426;DHT22;9340;48.756;9.226;2023-09-18T07:01:44;19.70;99.90
18426;DHT22;9340;48.756;9.226;2023-09-18T07:04:10;19.70;99.90
18426;DHT22;9340;48.756;9.226;2023-09-18T07:06:38;19.80;99.90
18426;DHT22;9340;48.756;9.226;2023-09-18T07:09:06;19.90;99.90
18426;DHT22;9340;48.756;9.226;2023-09-18T07:11:32;19.90;99.90
18426;DHT22;9340;48.756;9.226;2023-09-18T07:13:59;20.00;99.90
18426;DHT22;9340;48.756;9.226;2023-09-18T07:16:31;20.10;99.90
18426;DHT22;9340;48.756;9.226;2023-09-18T07:18:58;20.30;99.90
18426;DHT22;9340;48.756;9.226;2023-09-18T07:21:25;20.40;99.90
18426;DHT22;9340;48.756;9.226;2023-09-18T07:23:53;20.60;99.90
18426;DHT22;9340;48.756;9.226;2023-09-18T07:26:19;20.70;99.90
18426;DHT22;9340;48.756;9.226;2023-09-18T07:28:46;20.80;99.90
18426;DHT22;9340;48.756;9.226;2023-09-18T07:31:13;20.90;99.90
18426;DHT22;9340;48.756;9.226;2023-09-18T07:33:41;21.00;99.90
18426;DHT22;9340;48.756;9.226;2023-09-18T07:36:07;20.90;99.90
18426;DHT22;9340;48.756;9.226;2023-09-18T07:38:35;20.90;99.90
18426;DHT22;9340;48.756;9.226;2023-09-18T07:41:04;20.90;99.90
18426;DHT22;9340;48.756;9.226;2023-09-18T07:43:31;20.90;99.90
18426;DHT22;9340;48.756;9.226;2023-09-18T07:45:58;20.80;99.90
18426;DHT22;9340;48.756;9.226;2023-09-18T07:48:25;20.90;99.90
18426;DHT22;9340;48.756;9.226;2023-09-18T07:50:51;21.00;99.90
18426;DHT22;9340;48.756;9.226;2023-09-18T07:53:20;21.10;99.90
18426;DHT22;9340;48.756;9.226;2023-09-18T07:55:48;21.20;99.90
18426;DHT22;9340;48.756;9.226;2023-09-18T07:58:16;21.40;99.90
18426;DHT22;9340;48.756;9.226;2023-09-18T08:00:43;21.60;99.90
18426;DHT22;9340;48.756;9.226;2023-09-18T08:03:09;21.80;99.90
18426;DHT22;9340;48.756;9.226;2023-09-18T08:05:36;22.10;99.90
18426;DHT22;9340;48.756;9.226;2023-09-18T08:08:04;22.30;99.90
18426;DHT22;9340;48.756;9.226;2023-09-18T08:10:31;22.40;99.90
18426;DHT22;9340;48.756;9.226;2023-09-18T08:12:58;22.40;99.90
18426;DHT22;9340;48.756;9.226;2023-09-18T08:15:26;22.20;99.90
18426;DHT22;9340;48.756;9.226;2023-09-18T08:17:54;22.10;99.90
18426;DHT22;9340;48.756;9.226;2023-09-18T08:20:21;22.00;99.90
18426;DHT22;9340;48.756;9.226;2023-09-18T08:22:48;21.90;99.90
18426;DHT22;9340;48.756;9.226;2023-09-18T08:25:15;21.80;99.90
18426;DHT22;9340;48.756;9.226;2023-09-18T08:27:42;21.80;99.90
18426;DHT22;9340;48.756;9.226;2023-09-18T08:30:10;21.60;99.90
18426;DHT22;9340;48.756;9.226;2023-09-18T08:32:38;21.50;99.90
18426;DHT22;9340;48.756;9.226;2023-09-18T08:35:06;21.30;99.90
18426;DHT22;9340;48.756;9.226;2023-09-18T08:37:33;21.30;99.90
18426;DHT22;9340;48.756;9.226;2023-09-18T08:40:00;21.20;99.90
18426;DHT22;9340;48.756;9.226;2023-09-18T08:42:36;21.20;99.90
18426;DHT22;9340;48.756;9.226;2023-09-18T08:45:06;21.20;99.90
18426;DHT22;9340;48.756;9.226;2023-09-18T08:47:35;21.20;99.90
18426;DHT22;9340;48.756;9.226;2023-09-18T08:50:03;21.10;99.90
18426;DHT22;9340;48.756;9.226;2023-09-18T08:52:31;21.00;99.90
18426;DHT22;9340;48.756;9.226;2023-09-18T08:54:58;21.00;99.90
18426;DHT22;9340;48.756;9.226;2023-09-18T08:57:27;21.00;99.90
18426;DHT22;9340;48.756;9.226;2023-09-18T08:59:56;20.90;99.90
18426;DHT22;9340;48.756;9.226;2023-09-18T09:02:23;20.80;99.90
18426;DHT22;9340;48.756;9.226;2023-09-18T09:04:50;20.70;99.90
18426;DHT22;9340;48.756;9.226;2023-09-18T09:07:18;20.60;99.90
18426;DHT22;9340;48.756;9.226;2023-09-18T09:09:45;20.50;99.90
18426;DHT22;9340;48.756;9.226;2023-09-18T09:12:12;20.50;99.90
18426;DHT22;9340;48.756;9.226;2023-09-18T09:14:39;20.40;99.90
18426;DHT22;9340;48.756;9.226;2023-09-18T09:17:07;20.40;99.90
18426;DHT22;9340;48.756;9.226;2023-09-18T09:19:34;20.30;99.90
18426;DHT22;9340;48.756;9.226;2023-09-18T09:22:04;20.40;99.90
18426;DHT22;9340;48.756;9.226;2023-09-18T09:24:39;20.40;99.90
18426;DHT22;9340;48.756;9.226;2023-09-18T09:27:06;20.50;99.90
18426;DHT22;9340;48.756;9.226;2023-09-18T09:29:34;20.60;99.90
18426;DHT22;9340;48.756;9.226;2023-09-18T09:32:12;20.80;99.90
18426;DHT22;9340;48.756;9.226;2023-09-18T09:34:41;20.80;99.90
18426;DHT22;9340;48.756;9.226;2023-09-18T09:37:08;20.80;99.90
18426;DHT22;9340;48.756;9.226;2023-09-18T09:39:50;20.70;99.90
18426;DHT22;9340;48.756;9.226;2023-09-18T09:42:18;20.70;99.90
18426;DHT22;9340;48.756;9.226;2023-09-18T09:44:47;20.50;99.90
18426;DHT22;9340;48.756;9.226;2023-09-18T09:47:14;20.60;99.90
18426;DHT22;9340;48.756;9.226;2023-09-18T09:49:47;20.50;99.90
18426;DHT22;9340;48.756;9.226;2023-09-18T09:52:18;20.50;99.90
18426;DHT22;9340;48.756;9.226;2023-09-18T09:54:48;20.50;99.90
18426;DHT22;9340;48.756;9.226;2023-09-18T09:57:14;20.60;99.90
18426;DHT22;9340;48.756;9.226;2023-09-18T09:59:41;20.40;99.90
18426;DHT22;9340;48.756;9.226;2023-09-18T10:02:10;20.10;99.90
18426;DHT22;9340;48.756;9.226;2023-09-18T10:04:40;20.10;99.90
18426;DHT22;9340;48.756;9.226;2023-09-18T10:07:09;20.10;99.90
18426;DHT22;9340;48.756;9.226;2023-09-18T10:09:41;20.40;99.90
18426;DHT22;9340;48.756;9.226;2023-09-18T10:12:11;20.60;99.90
18426;DHT22;9340;48.756;9.226;2023-09-18T10:14:38;20.80;99.90
18426;DHT22;9340;48.756;9.226;2023-09-18T10:17:14;20.80;99.90
18426;DHT22;9340;48.756;9.226;2023-09-18T10:19:46;20.70;99.90
18426;DHT22;9340;48.756;9.226;2023-09-18T10:22:24;20.50;99.90
18426;DHT22;9340;48.756;9.226;2023-09-18T10:24:54;20.30;99.90
18426;DHT22;9340;48.756;9.226;2023-09-18T10:27:27;20.00;99.90
18426;DHT22;9340;48.756;9.226;2023-09-18T10:29:54;19.90;99.90
18426;DHT22;9340;48.756;9.226;2023-09-18T10:32:22;19.80;99.90
18426;DHT22;9340;48.756;9.226;2023-09-18T10:34:49;19.70;99.90
18426;DHT22;9340;48.756;9.226;2023-09-18T10:37:17;19.90;99.90
18426;DHT22;9340;48.756;9.226;2023-09-18T10:39:45;19.90;99.90
18426;DHT22;9340;48.756;9.226;2023-09-18T10:42:17;19.90;99.90
18426;DHT22;9340;48.756;9.226;2023-09-18T10:44:46;20.00;99.90
18426;DHT22;9340;48.756;9.226;2023-09-18T10:47:13;19.90;99.90
18426;DHT22;9340;48.756;9.226;2023-09-18T10:49:41;19.90;99.90
18426;DHT22;9340;48.756;9.226;2023-09-18T10:52:11;19.70;99.90
18426;DHT22;9340;48.756;9.226;2023-09-18T10:54:38;19.80;99.90
18426;DHT22;9340;48.756;9.226;2023-09-18T10:57:05;19.80;99.90
18426;DHT22;9340;48.756;9.226;2023-09-18T10:59:32;19.80;99.90
18426;DHT22;9340;48.756;9.226;2023-09-18T11:02:04;20.00;99.90
18426;DHT22;9340;48.756;9.226;2023-09-18T11:04:31;20.10;99.90
18426;DHT22;9340;48.756;9.226;2023-09-18T11:07:02;20.00;99.90
18426;DHT22;9340;48.756;9.226;2023-09-18T11:09:30;19.80;99.90
18426;DHT22;9340;48.756;9.226;2023-09-18T11:12:03;19.70;99.90
18426;DHT22;9340;48.756;9.226;2023-09-18T11:14:42;19.70;99.90
18426;DHT22;9340;48.756;9.226;2023-09-18T11:17:29;19.70;99.90
18426;DHT22;9340;48.756;9.226;2023-09-18T11:20:03;19.70;99.90
18426;DHT22;9340;48.756;9.226;2023-09-18T11:22:30;19.80;99.90
18426;DHT22;9340;48.756;9.226;2023-09-18T11:27:55;19.70;99.90
18426;DHT22;9340;48.756;9.226;2023-09-18T11:30:22;19.80;99.90
18426;DHT22;9340;48.756;9.226;2023-09-18T11:32:50;19.70;99.90
18426;DHT22;9340;48.756;9.226;2023-09-18T11:35:18;19.90;99.90
18426;DHT22;9340;48.756;9.226;2023-09-18T11:37:45;20.00;99.90
18426;DHT22;9340;48.756;9.226;2023-09-18T11:40:28;19.90;99.90
18426;DHT22;9340;48.756;9.226;2023-09-18T11:43:21;20.10;99.90
18426;DHT22;9340;48.756;9.226;2023-09-18T11:45:52;20.20;99.90
18426;DHT22;9340;48.756;9.226;2023-09-18T11:48:22;20.50;99.90
18426;DHT22;9340;48.756;9.226;2023-09-18T11:50:53;20.70;99.90
18426;DHT22;9340;48.756;9.226;2023-09-18T11:53:20;20.80;99.90
18426;DHT22;9340;48.756;9.226;2023-09-18T11:55:48;20.80;99.90
18426;DHT22;9340;48.756;9.226;2023-09-18T11:58:14;20.90;99.90
18426;DHT22;9340;48.756;9.226;2023-09-18T12:00:41;21.00;99.90
18426;DHT22;9340;48.756;9.226;2023-09-18T12:03:16;21.20;99.90
18426;DHT22;9340;48.756;9.226;2023-09-18T12:05:52;21.20;99.90
18426;DHT22;9340;48.756;9.226;2023-09-18T12:08:20;21.10;99.90
18426;DHT22;9340;48.756;9.226;2023-09-18T12:10:50;20.80;99.90
18426;DHT22;9340;48.756;9.226;2023-09-18T12:13:17;20.70;99.90
18426;DHT22;9340;48.756;9.226;2023-09-18T12:15:44;21.00;99.90
18426;DHT22;9340;48.756;9.226;2023-09-18T12:18:11;21.20;99.90
18426;DHT22;9340;48.756;9.226;2023-09-18T12:20:44;21.20;99.90
18426;DHT22;9340;48.756;9.226;2023-09-18T12:23:13;21.20;99.90
18426;DHT22;9340;48.756;9.226;2023-09-18T12:25:40;21.40;99.90
18426;DHT22;9340;48.756;9.226;2023-09-18T12:28:07;21.40;99.90
18426;DHT22;9340;48.756;9.226;2023-09-18T12:30:34;21.20;99.90
18426;DHT22;9340;48.756;9.226;2023-09-18T12:33:01;21.20;99.90
18426;DHT22;9340;48.756;9.226;2023-09-18T12:35:29;21.20;99.90
18426;DHT22;9340;48.756;9.226;2023-09-18T12:37:56;21.20;99.90
18426;DHT22;9340;48.756;9.226;2023-09-18T12:40:26;21.30;99.90
18426;DHT22;9340;48.756;9.226;2023-09-18T12:42:55;21.20;99.90
18426;DHT22;9340;48.756;9.226;2023-09-18T12:45:22;21.50;99.90
18426;DHT22;9340;48.756;9.226;2023-09-18T12:47:50;21.80;99.90
18426;DHT22;9340;48.756;9.226;2023-09-18T12:50:17;22.10;99.90
18426;DHT22;9340;48.756;9.226;2023-09-18T12:52:44;22.60;99.90
18426;DHT22;9340;48.756;9.226;2023-09-18T12:55:21;23.10;99.90
18426;DHT22;9340;48.756;9.226;2023-09-18T12:57:50;23.50;99.90
18426;DHT22;9340;48.756;9.226;2023-09-18T13:00:18;23.70;99.90
18426;DHT22;9340;48.756;9.226;2023-09-18T13:02:48;23.80;99.90
18426;DHT22;9340;48.756;9.226;2023-09-18T13:05:19;23.90;99.90
18426;DHT22;9340;48.756;9.226;2023-09-18T13:07:47;24.00;99.90
18426;DHT22;9340;48.756;9.226;2023-09-18T13:10:16;24.10;99.90
18426;DHT22;9340;48.756;9.226;2023-09-18T13:12:45;24.40;99.90
18426;DHT22;9340;48.756;9.226;2023-09-18T13:15:13;24.30;99.90
18426;DHT22;9340;48.756;9.226;2023-09-18T13:17:41;24.20;99.90
18426;DHT22;9340;48.756;9.226;2023-09-18T13:20:12;24.10;99.90
18426;DHT22;9340;48.756;9.226;2023-09-18T13:22:38;24.10;99.90
18426;DHT22;9340;48.756;9.226;2023-09-18T13:25:06;24.20;99.90
18426;DHT22;9340;48.756;9.226;2023-09-18T13:27:33;24.30;99.90
18426;DHT22;9340;48.756;9.226;2023-09-18T13:30:00;24.40;99.90
18426;DHT22;9340;48.756;9.226;2023-09-18T13:32:34;24.30;99.90
18426;DHT22;9340;48.756;9.226;2023-09-18T13:35:02;24.20;99.90
18426;DHT22;9340;48.756;9.226;2023-09-18T13:37:31;24.30;99.90
18426;DHT22;9340;48.756;9.226;2023-09-18T13:39:58;24.30;99.90
18426;DHT22;9340;48.756;9.226;2023-09-18T13:42:26;24.60;99.90
18426;DHT22;9340;48.756;9.226;2023-09-18T13:44:55;24.70;99.90
18426;DHT22;9340;48.756;9.226;2023-09-18T13:47:21;24.70;99.90
18426;DHT22;9340;48.756;9.226;2023-09-18T13:49:49;24.50;99.90
18426;DHT22;9340;48.756;9.226;2023-09-18T13:52:16;24.00;99.90
18426;DHT22;9340;48.756;9.226;2023-09-18T13:54:45;23.60;99.90
18426;DHT22;9340;48.756;9.226;2023-09-18T13:57:16;23.50;99.90
18426;DHT22;9340;48.756;9.226;2023-09-18T13:59:44;23.40;99.90
18426;DHT22;9340;48.756;9.226;2023-09-18T14:02:11;23.40;99.90
18426;DHT22;9340;48.756;9.226;2023-09-18T14:04:38;23.50;99.90
18426;DHT22;9340;48.756;9.226;2023-09-18T14:07:06;23.60;99.90
18426;DHT22;9340;48.756;9.226;2023-09-18T14:09:33;23.80;99.90
18426;DHT22;9340;48.756;9.226;2023-09-18T14:12:00;23.90;99.90
18426;DHT22;9340;48.756;9.226;2023-09-18T14:14:28;24.00;99.90
18426;DHT22;9340;48.756;9.226;2023-09-18T14:16:55;24.10;99.90
18426;DHT22;9340;48.756;9.226;2023-09-18T14:19:22;24.20;99.90
18426;DHT22;9340;48.756;9.226;2023-09-18T14:21:49;23.90;99.90
18426;DHT22;9340;48.756;9.226;2023-09-18T14:24:18;24.00;99.90
18426;DHT22;9340;48.756;9.226;2023-09-18T14:26:47;23.90;99.90
18426;DHT22;9340;48.756;9.226;2023-09-18T14:29:14;23.70;99.90
18426;DHT22;9340;48.756;9.226;2023-09-18T14:31:41;23.60;99.90
18426;DHT22;9340;48.756;9.226;2023-09-18T14:34:09;23.70;99.90
18426;DHT22;9340;48.756;9.226;2023-09-18T14:36:36;23.70;99.90
18426;DHT22;9340;48.756;9.226;2023-09-18T14:39:04;23.90;99.90
18426;DHT22;9340;48.756;9.226;2023-09-18T14:41:34;23.90;99.90
18426;DHT22;9340;48.756;9.226;2023-09-18T14:44:01;24.00;99.90
18426;DHT22;9340;48.756;9.226;2023-09-18T14:46:29;23.90;99.90
18426;DHT22;9340;48.756;9.226;2023-09-18T14:48:56;24.00;99.90
18426;DHT22;9340;48.756;9.226;2023-09-18T14:51:23;23.90;99.90
18426;DHT22;9340;48.756;9.226;2023-09-18T14:53:50;24.10;99.90
18426;DHT22;9340;48.756;9.226;2023-09-18T14:56:17;24.10;99.90
18426;DHT22;9340;48.756;9.226;2023-09-18T14:58:45;24.20;99.90
18426;DHT22;9340;48.756;9.226;2023-09-18T15:01:11;24.00;99.90
18426;DHT22;9340;48.756;9.226;2023-09-18T15:03:40;23.90;99.90
18426;DHT22;9340;48.756;9.226;2023-09-18T15:06:07;23.90;99.90
18426;DHT22;9340;48.756;9.226;2023-09-18T15:08:34;23.80;99.90
18426;DHT22;9340;48.756;9.226;2023-09-18T15:11:00;23.60;99.90
18426;DHT22;9340;48.756;9.226;2023-09-18T15:13:28;23.40;99.90
18426;DHT22;9340;48.756;9.226;2023-09-18T15:15:56;23.10;99.90
18426;DHT22;9340;48.756;9.226;2023-09-18T15:18:22;23.00;99.90
18426;DHT22;9340;48.756;9.226;2023-09-18T15:20:49;22.80;99.90
18426;DHT22;9340;48.756;9.226;2023-09-18T15:23:19;22.80;99.90
18426;DHT22;9340;48.756;9.226;2023-09-18T15:25:47;22.80;99.90
18426;DHT22;9340;48.756;9.226;2023-09-18T15:28:15;22.80;99.90
18426;DHT22;9340;48.756;9.226;2023-09-18T15:30:43;22.80;99.90
18426;DHT22;9340;48.756;9.226;2023-09-18T15:33:11;22.80;99.90
18426;DHT22;9340;48.756;9.226;2023-09-18T15:35:38;22.80;99.90
18426;DHT22;9340;48.756;9.226;2023-09-18T15:38:05;22.90;99.90
18426;DHT22;9340;48.756;9.226;2023-09-18T15:40:33;23.00;99.90
18426;DHT22;9340;48.756;9.226;2023-09-18T15:43:00;23.00;99.90
18426;DHT22;9340;48.756;9.226;2023-09-18T15:45:26;23.00;99.90
18426;DHT22;9340;48.756;9.226;2023-09-18T15:47:53;22.90;99.90
18426;DHT22;9340;48.756;9.226;2023-09-18T15:50:22;22.80;99.90
18426;DHT22;9340;48.756;9.226;2023-09-18T15:52:49;22.60;99.90